Terminal Aerodrome Forecast
Issued by NWS Jacksonville, FL

Home | Current Version | Previous Version | Text Only | Print | Product List | Glossary On
Versions: 1 2 3 4 5 6 7 8 9 10 11 12 13 14 15 16 17 18
000
FTUS42 KJAX 220547
TAFSSI
TAF
KSSI 220547Z 2206/2306 VRB04KT 6SM BR FEW005 SCT020 OVC080
     FM220700 00000KT 3SM BR SCT010 BKN020
     FM220900 00000KT 1SM BR OVC004
     FM221600 03008KT P6SM SCT010 BKN035=

USA.gov is the U.S. government's official web portal to all federal, state and local government web resources and services.